Time;durP1;ratioP1;P1;durP2;ratioP2;P2;SDS_P1;SDS_P2;PMS_P1;PMS_P2;Temp;Humidity;BMP_temperature;BMP_pressure;BME280_temperature;BME280_humidity;BME280_pressure;Samples;Min_cycle;Max_cycle;Signal;HPM_P1;HPM_P2
2023/01/25 00:06:06;;;;;;;31.80;14.10;;;;;;;0.35;66.02;102385.33;102290;1289;601376;-62
2023/01/25 00:08:34;;;;;;;33.70;12.90;;;;;;;0.45;65.56;102386.98;104675;1266;59389;-61
2023/01/25 00:11:03;;;;;;;19.90;9.00;;;;;;;0.49;65.34;102386.29;105734;1265;61066;-60
2023/01/25 00:13:32;;;;;;;25.60;11.50;;;;;;;0.49;65.41;102387.33;106695;1265;72939;-63
2023/01/25 00:16:01;;;;;;;24.80;11.60;;;;;;;0.49;65.52;102387.84;104555;1265;71356;-61
2023/01/25 00:18:30;;;;;;;23.20;11.50;;;;;;;0.47;65.70;102391.81;104504;1266;182287;-64
2023/01/25 00:20:58;;;;;;;19.30;10.50;;;;;;;0.49;65.88;102394.39;104917;1265;59273;-63
2023/01/25 00:23:27;;;;;;;22.90;11.10;;;;;;;0.50;65.96;102389.04;104698;1266;61468;-61
2023/01/25 00:25:56;;;;;;;25.40;10.50;;;;;;;0.49;65.83;102388.70;104773;1264;72752;-60
2023/01/25 00:28:25;;;;;;;26.30;12.10;;;;;;;0.47;65.93;102392.84;104877;1267;70415;-61
2023/01/25 00:31:01;;;;;;;26.70;11.60;;;;;;;0.44;65.92;102393.21;104748;1264;72637;-60
2023/01/25 00:33:36;;;;;;;27.50;11.60;;;;;;;0.43;66.13;102391.14;104955;1264;60985;-60
2023/01/25 00:36:36;;;;;;;25.40;12.60;;;;;;;0.43;66.13;102385.95;104709;1264;60424;-60
2023/01/25 00:39:05;;;;;;;25.20;10.20;;;;;;;0.44;66.15;102379.04;104867;1267;65598;-60
2023/01/25 00:41:33;;;;;;;21.30;10.80;;;;;;;0.45;66.24;102377.32;104655;1266;69895;-62
2023/01/25 00:44:01;;;;;;;18.70;7.80;;;;;;;0.50;65.86;102377.98;104665;1267;73691;-62
2023/01/25 00:46:30;;;;;;;21.20;9.20;;;;;;;0.57;65.64;102370.69;104942;1267;61948;-61
2023/01/25 00:48:58;;;;;;;19.30;9.20;;;;;;;0.63;65.67;102369.77;104799;1262;61135;-60
2023/01/25 00:51:27;;;;;;;24.50;10.00;;;;;;;0.71;65.65;102372.84;104782;1262;73776;-62
2023/01/25 00:53:55;;;;;;;20.50;8.90;;;;;;;0.79;65.54;102372.61;104665;1264;70082;-62
2023/01/25 00:56:24;;;;;;;21.10;12.00;;;;;;;0.82;65.48;102367.57;104784;1270;73690;-62
2023/01/25 00:58:52;;;;;;;27.70;13.40;;;;;;;0.84;65.58;102362.38;105266;1256;59765;-62
2023/01/25 01:01:21;;;;;;;16.70;9.10;;;;;;;0.88;65.53;102356.30;105182;1256;61137;-61
2023/01/25 01:03:50;;;;;;;23.30;10.60;;;;;;;0.90;65.41;102355.25;105094;1260;74077;-61
2023/01/25 01:06:19;;;;;;;24.70;11.50;;;;;;;0.86;65.23;102351.64;105241;1256;71267;-61
2023/01/25 01:08:47;;;;;;;37.90;15.10;;;;;;;0.82;65.19;102353.23;105055;1261;73695;-61
2023/01/25 01:11:16;;;;;;;29.90;10.90;;;;;;;0.77;65.34;102352.41;105026;1256;60147;-61
2023/01/25 01:13:44;;;;;;;22.10;10.40;;;;;;;0.71;65.22;102361.78;105160;1256;61157;-62
2023/01/25 01:16:13;;;;;;;23.50;11.80;;;;;;;0.61;65.37;102355.81;105133;1260;73979;-62
2023/01/25 01:18:42;;;;;;;33.40;14.90;;;;;;;0.58;65.63;102353.23;105104;1258;71254;-62
2023/01/25 01:21:11;;;;;;;25.50;12.20;;;;;;;0.57;65.78;102350.82;105220;1257;72648;-61
2023/01/25 01:23:40;;;;;;;36.60;15.00;;;;;;;0.58;65.75;102348.77;105260;1255;60521;-60
2023/01/25 01:26:11;;;;;;;27.10;12.90;;;;;;;0.56;65.78;102355.51;105159;1257;61513;-61
2023/01/25 01:28:39;;;;;;;28.20;13.40;;;;;;;0.59;65.61;102352.20;105262;1256;65112;-62
2023/01/25 01:31:11;;;;;;;23.50;9.40;;;;;;;0.66;65.51;102352.31;105201;1256;71285;-61
2023/01/25 01:33:42;;;;;;;21.10;8.90;;;;;;;0.71;65.60;102348.31;105097;1257;65027;-62
2023/01/25 01:36:12;;;;;;;24.70;12.00;;;;;;;0.76;65.67;102353.80;105340;1257;59740;-61
2023/01/25 01:38:41;;;;;;;23.10;12.50;;;;;;;0.74;65.60;102352.77;105132;1256;62210;-62
2023/01/25 01:41:10;;;;;;;23.60;10.90;;;;;;;0.72;65.63;102350.72;105300;1259;73776;-61
2023/01/25 01:43:39;;;;;;;22.30;10.10;;;;;;;0.67;65.52;102347.48;105078;1257;71201;-62
2023/01/25 01:46:44;;;;;;;23.60;11.70;;;;;;;0.63;65.54;102347.85;105200;1259;72282;-61
2023/01/25 01:49:17;;;;;;;22.20;10.30;;;;;;;0.61;65.54;102347.17;105462;1259;59709;-61
2023/01/25 01:52:00;;;;;;;19.40;11.50;;;;;;;0.56;65.62;102342.20;105112;1260;61419;-62
2023/01/25 01:54:39;;;;;;;23.10;9.80;;;;;;;0.51;65.74;102342.58;105069;1262;65420;-61
2023/01/25 01:57:14;;;;;;;27.10;11.50;;;;;;;0.48;65.75;102343.29;105182;1261;71276;-61
2023/01/25 02:00:02;;;;;;;26.30;13.20;;;;;;;0.50;65.85;102343.28;105318;1256;64695;-62
2023/01/25 02:02:40;;;;;;;;;;;;;;;0.51;65.87;102339.45;105281;1256;59736;-61
2023/01/25 02:05:16;;;;;;;22.00;11.20;;;;;;;0.60;65.71;102339.92;105270;1258;61153;-61
2023/01/25 02:07:46;;;;;;;29.20;11.10;;;;;;;0.69;65.53;102334.85;105274;1257;65396;-61
2023/01/25 02:10:14;;;;;;;20.00;10.70;;;;;;;0.78;65.43;102335.13;105035;1262;70331;-62
2023/01/25 02:12:44;;;;;;;20.80;11.10;;;;;;;0.84;65.29;102334.73;105037;1258;73378;-62
2023/01/25 02:15:13;;;;;;;22.40;10.50;;;;;;;0.86;65.18;102330.05;105120;1262;59630;-60
2023/01/25 02:17:41;;;;;;;22.40;10.80;;;;;;;0.85;65.17;102328.16;105143;1259;60989;-61
2023/01/25 02:20:44;;;;;;;21.60;12.00;;;;;;;0.83;64.89;102325.23;104846;1260;74025;-62
2023/01/25 02:23:16;;;;;;;23.00;9.80;;;;;;;0.79;64.72;102324.40;105085;1258;62563;-61
2023/01/25 02:25:45;;;;;;;24.50;12.70;;;;;;;0.72;64.73;102329.13;105191;1257;63874;-61
2023/01/25 02:28:24;;;;;;;26.10;11.40;;;;;;;0.66;64.64;102330.03;105034;1259;59648;-61
2023/01/25 02:30:52;;;;;;;19.20;9.10;;;;;;;0.61;64.70;102322.64;104823;1257;59743;-63
2023/01/25 02:33:25;;;;;;;24.70;9.60;;;;;;;0.62;64.68;102314.70;105036;1261;74064;-62
2023/01/25 02:36:06;;;;;;;24.10;12.40;;;;;;;0.65;64.72;102313.80;105089;1258;69985;-62
2023/01/25 02:38:40;;;;;;;20.90;9.80;;;;;;;0.66;64.66;102315.02;105036;1259;65379;-62
2023/01/25 02:41:24;;;;;;;19.00;9.10;;;;;;;0.64;64.53;102313.64;105005;1257;59603;-61
2023/01/25 02:43:53;;;;;;;24.70;10.90;;;;;;;0.62;64.31;102312.62;105042;1261;59927;-62
2023/01/25 02:46:26;;;;;;;26.40;11.10;;;;;;;0.59;64.18;102318.35;105101;1261;73927;-61
2023/01/25 02:48:55;;;;;;;22.10;10.40;;;;;;;0.55;64.30;102313.02;105074;1258;70998;-61
2023/01/25 02:51:24;;;;;;;22.70;11.20;;;;;;;0.51;64.32;102313.21;105087;1259;73795;-62
2023/01/25 02:53:55;;;;;;;17.60;9.20;;;;;;;0.47;64.39;102315.84;105031;1257;60510;-61
2023/01/25 02:56:23;;;;;;;31.10;11.60;;;;;;;0.44;64.31;102317.24;105039;1257;61074;-61
2023/01/25 02:58:51;;;;;;;22.30;10.50;;;;;;;0.42;64.31;102320.71;105084;1261;73807;-62
2023/01/25 03:01:20;;;;;;;19.30;9.80;;;;;;;0.37;64.04;102321.42;105063;1258;71369;-61
2023/01/25 03:55:38;;;;;;;14.70;6.70;;;;;;;0.38;61.05;102324.87;105715;1286;600191;-89
2023/01/25 03:58:07;;;;;;;13.50;6.00;;;;;;;0.50;60.49;102330.83;108096;1267;59572;-90
2023/01/25 04:00:36;;;;;;;17.50;7.70;;;;;;;0.50;60.31;102332.21;107788;1267;61302;-90
2023/01/25 04:03:04;;;;;;;14.20;5.80;;;;;;;0.49;60.05;102330.16;107908;1267;73776;-89
2023/01/25 04:05:33;;;;;;;14.50;6.30;;;;;;;0.45;59.78;102325.52;107584;1267;71775;-90
2023/01/25 04:08:02;;;;;;;15.80;6.50;;;;;;;0.41;59.86;102322.77;107624;1267;267441;-89
2023/01/25 04:10:36;;;;;;;14.80;6.60;;;;;;;0.41;59.76;102324.85;108161;1264;57460;-89
2023/01/25 04:13:05;;;;;;;14.60;5.70;;;;;;;0.41;59.26;102330.02;108114;1258;61483;-89
2023/01/25 04:15:34;;;;;;;15.30;7.40;;;;;;;0.43;59.20;102334.52;108263;1257;73075;-89
2023/01/25 04:18:08;;;;;;;14.10;6.60;;;;;;;0.43;58.90;102340.21;108226;1263;70074;-90
2023/01/25 04:20:37;;;;;;;14.90;5.70;;;;;;;0.39;58.68;102334.89;108387;1257;73611;-90
2023/01/25 04:23:06;;;;;;;14.50;5.60;;;;;;;0.32;58.30;102335.45;108807;1256;60294;-89
2023/01/25 04:25:37;;;;;;;14.50;6.90;;;;;;;0.22;57.95;102333.42;108820;1251;61283;-89
2023/01/25 04:28:09;;;;;;;13.60;7.20;;;;;;;0.14;58.33;102331.58;108862;1251;73954;-90
2023/01/25 04:30:40;;;;;;;12.40;5.50;;;;;;;0.13;58.64;102328.81;108703;1251;71739;-89
2023/01/25 04:33:10;;;;;;;13.40;6.60;;;;;;;0.17;58.86;102328.28;108402;1251;73580;-89
2023/01/25 04:35:39;;;;;;;15.20;6.10;;;;;;;0.20;58.70;102327.92;108781;1251;59517;-87
2023/01/25 04:38:08;;;;;;;14.90;6.10;;;;;;;0.21;58.61;102327.39;108707;1255;60323;-87
2023/01/25 04:40:41;;;;;;;17.80;7.20;;;;;;;0.21;58.67;102326.02;108858;1253;72205;-87
2023/01/25 04:43:11;;;;;;;14.20;6.40;;;;;;;0.23;58.66;102325.33;108123;1251;71296;-87
2023/01/25 04:45:39;;;;;;;13.50;6.90;;;;;;;0.28;58.65;102326.31;108661;1254;73690;-87
2023/01/25 04:48:12;;;;;;;13.90;6.80;;;;;;;0.33;58.55;102323.87;108250;1254;59810;-87
2023/01/25 04:50:46;;;;;;;13.10;6.60;;;;;;;0.37;58.40;102327.65;109565;1254;60307;-87
2023/01/25 04:53:14;;;;;;;15.80;7.50;;;;;;;0.41;58.15;102328.83;108564;1253;74468;-88
2023/01/25 04:55:46;;;;;;;17.00;9.00;;;;;;;0.44;57.99;102326.39;108606;1254;71164;-87
2023/01/25 04:58:14;;;;;;;16.40;7.60;;;;;;;0.46;57.86;102324.65;108455;1253;72598;-87
2023/01/25 05:00:43;;;;;;;28.30;11.40;;;;;;;0.47;57.98;102321.53;108926;1254;61060;-87
2023/01/25 05:03:11;;;;;;;13.20;6.90;;;;;;;0.49;57.95;102324.97;108824;1253;61165;-86
2023/01/25 05:05:47;;;;;;;17.00;7.70;;;;;;;0.52;57.85;102332.20;108733;1254;73047;-87
2023/01/25 05:08:18;;;;;;;15.60;9.00;;;;;;;0.53;57.82;102331.16;108966;1254;62381;-88
2023/01/25 05:10:46;;;;;;;15.40;7.10;;;;;;;0.54;57.75;102331.16;108717;1254;73675;-88
2023/01/25 05:13:18;;;;;;;17.80;6.50;;;;;;;0.55;57.71;102329.41;108896;1253;59407;-87
2023/01/25 05:15:49;;;;;;;13.20;5.90;;;;;;;0.57;57.71;102332.88;108892;1252;60326;-88
2023/01/25 05:18:17;;;;;;;14.20;6.60;;;;;;;0.55;57.74;102335.64;109171;1254;74283;-88
2023/01/25 05:20:55;;;;;;;15.70;6.50;;;;;;;0.57;57.83;102341.16;108406;1254;70318;-87
2023/01/25 05:23:27;;;;;;;13.10;5.50;;;;;;;0.57;57.70;102341.84;108319;1254;64195;-87
2023/01/25 05:28:42;;;;;;;14.80;5.70;;;;;;;0.52;57.70;102343.77;108148;1254;57780;-88
2023/01/25 05:31:38;;;;;;;16.40;7.50;;;;;;;0.50;57.63;102346.71;108373;1252;65410;-88
2023/01/25 05:34:08;;;;;;;15.20;6.40;;;;;;;0.49;57.69;102346.73;108242;1257;70092;-87
2023/01/25 05:36:36;;;;;;;13.30;7.00;;;;;;;0.48;58.08;102344.84;108453;1253;73482;-89
2023/01/25 05:39:07;;;;;;;15.50;7.10;;;;;;;0.49;58.22;102343.98;108893;1254;59658;-88
2023/01/25 05:41:36;;;;;;;14.80;8.50;;;;;;;0.49;58.41;102337.41;108950;1252;61491;-88
2023/01/25 05:44:04;;;;;;;19.90;6.90;;;;;;;0.53;58.54;102339.63;109065;1253;73969;-88
2023/01/25 05:46:36;;;;;;;16.50;6.10;;;;;;;0.57;58.62;102334.25;108747;1253;70993;-87
2023/01/25 05:49:04;;;;;;;11.30;5.10;;;;;;;0.70;58.52;102328.11;109039;1254;72208;-89
2023/01/25 05:51:34;;;;;;;13.80;5.80;;;;;;;0.84;58.31;102327.81;108730;1253;61996;-87
2023/01/25 05:54:04;;;;;;;13.20;6.80;;;;;;;0.93;58.16;102325.85;108567;1253;60370;-88
2023/01/25 05:56:34;;;;;;;14.10;6.70;;;;;;;0.95;58.24;102323.58;109077;1254;73470;-88
2023/01/25 05:59:02;;;;;;;14.60;6.80;;;;;;;0.92;58.34;102324.30;108706;1253;71097;-88
2023/01/25 06:01:31;;;;;;;15.30;6.60;;;;;;;0.90;57.96;102321.73;108969;1253;73669;-87
2023/01/25 06:04:00;;;;;;;15.20;6.10;;;;;;;0.85;57.71;102321.76;108727;1254;60266;-87
2023/01/25 06:06:36;;;;;;;21.60;16.30;;;;;;;0.86;57.66;102318.64;108372;1254;61211;-94
2023/01/25 06:09:05;;;;;;;10.30;4.90;;;;;;;0.88;57.41;102322.23;108159;1254;65224;-88
2023/01/25 06:11:34;;;;;;;14.20;6.00;;;;;;;0.87;57.43;102322.79;107928;1254;71066;-86
2023/01/25 06:14:05;;;;;;;11.60;6.60;;;;;;;0.85;57.48;102324.71;108064;1254;73493;-87
2023/01/25 06:16:33;;;;;;;13.50;6.70;;;;;;;0.83;57.51;102325.41;107794;1253;59446;-86
2023/01/25 06:19:34;;;;;;;16.60;7.30;;;;;;;0.82;57.61;102328.01;107781;1253;59655;-85
2023/01/25 06:22:16;;;;;;;16.40;7.70;;;;;;;0.80;57.52;102329.58;107980;1254;65072;-87
2023/01/25 06:24:44;;;;;;;17.00;9.10;;;;;;;0.78;57.60;102330.46;108246;1252;71277;-87
2023/01/25 06:27:13;;;;;;;17.50;9.00;;;;;;;0.79;57.92;102325.27;108375;1252;73687;-87
2023/01/25 06:29:42;;;;;;;16.60;9.20;;;;;;;0.83;57.95;102324.55;108566;1254;60982;-88
2023/01/25 06:32:10;;;;;;;12.90;6.10;;;;;;;0.84;57.79;102323.68;107874;1253;60378;-85
2023/01/25 06:34:39;;;;;;;14.50;7.10;;;;;;;0.84;58.02;102322.81;107763;1255;73958;-86
2023/01/25 06:37:10;;;;;;;14.70;7.50;;;;;;;0.86;58.02;102323.48;108341;1254;70381;-85
2023/01/25 06:39:39;;;;;;;15.40;6.30;;;;;;;0.87;57.91;102322.09;108545;1253;72694;-86
2023/01/25 06:42:07;;;;;;;15.50;6.40;;;;;;;0.86;57.88;102324.35;108349;1253;59605;-87
2023/01/25 06:44:36;;;;;;;21.00;7.20;;;;;;;0.86;57.97;102325.73;108955;1247;60163;-89
2023/01/25 06:47:09;;;;;;;16.00;6.40;;;;;;;0.86;57.93;102318.80;106679;1256;76357;-63
2023/01/25 06:49:37;;;;;;;14.60;6.80;;;;;;;0.88;57.90;102319.66;105314;1257;70907;-63
2023/01/25 06:52:05;;;;;;;18.00;7.80;;;;;;;0.87;57.91;102322.79;105485;1256;71797;-63
2023/01/25 06:54:34;;;;;;;12.70;6.90;;;;;;;0.82;58.00;102326.44;105355;1257;60661;-63
2023/01/25 06:57:02;;;;;;;16.90;6.30;;;;;;;0.80;58.12;102327.69;105332;1260;59927;-62
2023/01/25 06:59:31;;;;;;;15.80;7.60;;;;;;;0.77;58.19;102324.77;105395;1257;73885;-62
2023/01/25 07:02:00;;;;;;;18.10;8.60;;;;;;;0.72;58.31;102319.80;105415;1255;71011;-61
2023/01/25 07:04:30;;;;;;;20.10;10.30;;;;;;;0.70;58.41;102320.33;105317;1257;73593;-60
2023/01/25 07:06:59;;;;;;;18.40;9.40;;;;;;;0.70;58.59;102317.05;105668;1257;60136;-62
2023/01/25 07:09:27;;;;;;;19.90;6.70;;;;;;;0.70;58.54;102317.91;105406;1254;61417;-61
2023/01/25 07:11:56;;;;;;;17.80;10.00;;;;;;;0.64;58.46;102317.95;105515;1254;75025;-62
2023/01/25 07:14:24;;;;;;;16.20;7.80;;;;;;;0.60;58.75;102314.36;105575;1254;71174;-61
2023/01/25 07:16:52;;;;;;;17.40;8.70;;;;;;;0.58;58.91;102312.65;105531;1257;73662;-62
2023/01/25 07:19:21;;;;;;;18.10;8.20;;;;;;;0.53;58.79;102310.27;105670;1257;59751;-62
2023/01/25 07:21:49;;;;;;;19.60;9.30;;;;;;;0.47;58.87;102306.85;105998;1253;61257;-61
2023/01/25 07:24:19;;;;;;;19.00;8.70;;;;;;;0.44;58.96;102304.45;105372;1257;74120;-62
2023/01/25 07:26:48;;;;;;;17.10;9.20;;;;;;;0.41;59.10;102302.76;105499;1257;70948;-62
2023/01/25 07:29:16;;;;;;;13.10;5.70;;;;;;;0.47;59.16;102302.89;105875;1254;72466;-62
2023/01/25 07:31:45;;;;;;;18.70;7.10;;;;;;;0.59;59.13;102306.42;105533;1254;62185;-62
2023/01/25 07:34:14;;;;;;;14.80;6.50;;;;;;;0.73;58.92;102308.56;106022;1257;61544;-62
2023/01/25 07:36:43;;;;;;;18.40;8.20;;;;;;;0.81;58.60;102310.23;108756;1254;74051;-61
2023/01/25 07:39:11;;;;;;;11.90;5.20;;;;;;;0.91;58.60;102307.37;109315;1255;70333;-61
2023/01/25 07:41:39;;;;;;;16.40;7.40;;;;;;;1.02;58.41;102305.73;109296;1254;76375;-61
2023/01/25 07:44:12;;;;;;;14.00;7.30;;;;;;;1.04;58.17;102299.13;109068;1254;60723;-60
2023/01/25 07:46:46;;;;;;;17.20;7.10;;;;;;;1.08;58.25;102299.27;109111;1254;60118;-61
2023/01/25 07:49:14;;;;;;;17.70;9.50;;;;;;;1.12;58.17;102300.44;107077;1256;72836;-60
2023/01/25 07:51:44;;;;;;;15.50;7.00;;;;;;;1.14;58.17;102302.83;105141;1257;71191;-61
2023/01/25 07:54:13;;;;;;;15.30;6.90;;;;;;;1.13;57.98;102301.98;105260;1257;73563;-61
2023/01/25 07:56:41;;;;;;;15.70;7.30;;;;;;;1.09;57.94;102302.02;105468;1258;60367;-61
2023/01/25 10:14:57;;;;;;;23.00;9.60;;;;;;;0.49;59.48;102254.00;106170;1261;59774;-64
2023/01/25 10:17:38;;;;;;;18.10;9.60;;;;;;;0.52;59.50;102254.66;107494;1248;72787;-64
2023/01/25 10:20:08;;;;;;;19.20;9.00;;;;;;;0.56;59.61;102248.41;109099;1244;59573;-66
2023/01/25 10:22:42;;;;;;;18.60;8.90;;;;;;;0.58;59.41;102243.73;107960;1244;60402;-65
2023/01/25 10:25:23;;;;;;;20.10;9.00;;;;;;;0.58;59.29;102245.29;107845;1244;74092;-65
2023/01/25 10:28:19;;;;;;;15.80;7.80;;;;;;;0.59;59.36;102238.38;110391;1239;62550;-65
2023/01/25 10:31:15;;;;;;;16.80;9.60;;;;;;;0.64;59.25;102229.01;108721;1238;63705;-65
2023/01/25 10:33:46;;;;;;;22.10;10.10;;;;;;;0.65;59.13;102225.71;108163;1241;59486;-66
2023/01/25 10:36:17;;;;;;;18.80;9.40;;;;;;;0.66;59.05;102218.09;108108;1240;61004;-65
2023/01/25 10:38:45;;;;;;;22.40;10.30;;;;;;;0.67;58.95;102214.48;108117;1237;72821;-66
2023/01/25 10:41:19;;;;;;;22.20;9.40;;;;;;;0.65;58.93;102207.73;108141;1240;70042;-66
2023/01/25 10:43:46;;;;;;;18.50;8.60;;;;;;;0.64;58.85;102202.23;111662;1237;73264;-65
2023/01/25 10:46:21;;;;;;;15.60;7.00;;;;;;;0.72;58.71;102204.06;111676;1240;61029;-65
2023/01/25 10:48:48;;;;;;;14.10;5.90;;;;;;;0.81;58.52;102200.86;111563;1237;59476;-65
2023/01/25 10:51:31;;;;;;;13.20;5.80;;;;;;;0.86;58.02;102199.07;111653;1237;73790;-64
2023/01/25 10:54:03;;;;;;;12.00;5.70;;;;;;;0.89;57.89;102192.64;111620;1237;62625;-67
2023/01/25 10:56:33;;;;;;;14.00;6.30;;;;;;;0.97;57.91;102194.29;111565;1238;73774;-67
2023/01/25 10:59:17;;;;;;;17.90;9.60;;;;;;;1.03;57.83;102192.33;108044;1243;60259;-65
2023/01/25 11:01:44;;;;;;;16.80;8.90;;;;;;;1.08;57.78;102189.33;108001;1237;59667;-65
2023/01/25 11:04:33;;;;;;;12.60;6.30;;;;;;;1.12;57.47;102180.13;107917;1236;73985;-67
2023/01/25 11:07:04;;;;;;;15.20;6.60;;;;;;;1.09;57.39;102183.28;108091;1240;62406;-67
2023/01/25 11:09:38;;;;;;;18.40;8.50;;;;;;;1.03;57.39;102180.75;108005;1241;73601;-67
2023/01/25 11:12:10;;;;;;;18.30;7.80;;;;;;;0.99;57.49;102176.83;108076;1240;59763;-67
2023/01/25 11:14:37;;;;;;;17.70;8.50;;;;;;;0.94;57.40;102174.80;108308;1240;60072;-67
2023/01/25 11:17:08;;;;;;;16.80;8.20;;;;;;;0.87;57.43;102172.29;107955;1238;73650;-66
2023/01/25 11:19:39;;;;;;;19.80;8.00;;;;;;;0.80;57.46;102172.02;111587;1238;70213;-66
2023/01/25 11:22:18;;;;;;;15.40;7.60;;;;;;;0.72;57.41;102166.73;111693;1236;71670;-67
2023/01/25 11:24:45;;;;;;;16.70;6.90;;;;;;;0.65;57.52;102163.88;111679;1237;57502;-66
2023/01/25 11:27:21;;;;;;;16.70;8.50;;;;;;;0.58;57.56;102160.84;111639;1237;59167;-65
2023/01/25 11:30:15;;;;;;;15.20;7.20;;;;;;;0.55;57.58;102159.84;108249;1237;72803;-66
2023/01/25 11:32:41;;;;;;;16.60;8.40;;;;;;;0.51;57.56;102154.00;108236;1240;62290;-66
2023/01/25 11:35:14;;;;;;;15.50;7.20;;;;;;;0.46;57.51;102155.08;107970;1241;73436;-67
2023/01/25 11:38:21;;;;;;;14.90;7.60;;;;;;;0.44;57.62;102157.52;108071;1240;60790;-67
2023/01/25 11:41:23;;;;;;;16.20;8.00;;;;;;;0.42;57.68;102150.45;107944;1241;59523;-67
2023/01/25 11:45:40;;;;;;;18.40;8.00;;;;;;;0.24;58.50;102150.10;102067;1296;602076;-66
2023/01/25 11:48:27;;;;;;;18.30;7.10;;;;;;;0.33;58.21;102143.81;106376;1266;59270;-65
2023/01/25 11:50:58;;;;;;;12.90;6.80;;;;;;;0.33;58.03;102145.54;105583;1267;61700;-66
2023/01/25 11:53:33;;;;;;;13.80;7.20;;;;;;;0.30;58.16;102145.39;105596;1265;73098;-66
2023/01/25 11:56:06;;;;;;;;;;;;;;;0.31;58.28;102145.21;104890;1270;70538;-65
2023/01/25 11:58:38;;;;;;;16.80;7.10;;;;;;;0.33;58.38;102138.96;105128;1264;207672;-65
2023/01/25 12:01:18;;;;;;;16.50;6.80;;;;;;;0.34;58.36;102134.83;105234;1263;60621;-65
2023/01/25 12:04:09;;;;;;;16.70;6.90;;;;;;;0.34;58.02;102136.89;104908;1267;61500;-67
2023/01/25 12:06:57;;;;;;;14.60;6.30;;;;;;;0.31;57.98;102136.23;105280;1264;63212;-67
2023/01/25 12:09:35;;;;;;;16.30;7.30;;;;;;;0.30;57.93;102142.28;106736;1264;62453;-66
2023/01/25 12:12:31;;;;;;;14.80;7.20;;;;;;;0.29;57.91;102138.67;105379;1257;73400;-65
2023/01/25 12:15:22;;;;;;;17.00;7.30;;;;;;;0.28;57.80;102133.84;105362;1255;60011;-66
2023/01/25 12:17:53;;;;;;;16.60;7.90;;;;;;;0.28;57.78;102126.93;105249;1256;59742;-66
2023/01/25 12:20:30;;;;;;;17.10;7.80;;;;;;;0.26;57.42;102127.30;105351;1260;74272;-66
2023/01/25 12:23:10;;;;;;;12.70;5.80;;;;;;;0.22;57.42;102130.27;105307;1256;70254;-66
2023/01/25 12:26:06;;;;;;;18.60;8.60;;;;;;;0.18;57.49;102131.69;105272;1257;64790;-66
2023/01/25 12:28:52;;;;;;;18.00;6.60;;;;;;;0.16;57.55;102129.11;104944;1261;59719;-66
2023/01/25 12:31:33;;;;;;;14.90;6.40;;;;;;;0.14;57.62;102126.52;105070;1260;59743;-66
2023/01/25 12:34:04;;;;;;;16.30;7.60;;;;;;;0.16;57.87;102129.11;108942;1255;65210;-65
2023/01/25 12:36:36;;;;;;;15.40;7.20;;;;;;;0.20;57.96;102127.17;108810;1257;69333;-66
2023/01/25 12:39:10;;;;;;;15.50;6.70;;;;;;;0.21;57.93;102121.48;108863;1255;73739;-65
2023/01/25 12:42:09;;;;;;;12.60;5.80;;;;;;;0.20;58.05;102121.83;108295;1256;60570;-65
2023/01/25 12:44:49;;;;;;;15.90;6.30;;;;;;;0.20;58.06;102123.23;105725;1256;60092;-67
2023/01/25 12:47:38;;;;;;;11.80;5.30;;;;;;;0.20;58.19;102124.08;105164;1258;64066;-67
2023/01/25 12:50:37;;;;;;;12.00;5.60;;;;;;;0.21;58.12;102122.34;105536;1256;62460;-67
2023/01/25 12:53:12;;;;;;;14.90;7.10;;;;;;;0.18;58.02;102120.29;105492;1256;64958;-67
2023/01/25 12:55:41;;;;;;;18.70;7.60;;;;;;;0.10;58.23;102121.74;105579;1256;60567;-67
2023/01/25 12:58:18;;;;;;;14.80;7.30;;;;;;;0.05;58.46;102121.96;105103;1256;61105;-67
2023/01/25 13:01:11;;;;;;;18.00;8.40;;;;;;;0.06;58.71;102120.23;105786;1255;65408;-65
2023/01/25 13:03:58;;;;;;;15.50;6.30;;;;;;;0.07;58.71;102122.30;105550;1257;62594;-66
2023/01/25 13:06:57;;;;;;;11.90;7.00;;;;;;;0.04;58.69;102119.73;104975;1256;65036;-66
2023/01/25 13:09:27;;;;;;;17.50;7.40;;;;;;;0.02;58.82;102119.91;108927;1257;57361;-66
2023/01/25 13:11:55;;;;;;;12.80;5.90;;;;;;;0.02;58.80;102121.46;108863;1256;61045;-66
2023/01/25 13:14:28;;;;;;;15.40;6.90;;;;;;;0.03;58.90;102116.30;105083;1256;73106;-71
2023/01/25 13:17:22;;;;;;;18.50;7.60;;;;;;;0.05;58.90;102117.83;105314;1256;71193;-66
2023/01/25 13:19:52;;;;;;;14.00;7.00;;;;;;;0.04;58.77;102115.23;105806;1258;64894;-69
2023/01/25 13:22:42;;;;;;;16.40;7.60;;;;;;;-0.03;58.73;102116.67;105306;1260;60501;-70
2023/01/25 13:25:16;;;;;;;13.40;6.00;;;;;;;-0.10;59.04;102115.34;105345;1257;59737;-63
2023/01/25 13:27:45;;;;;;;17.50;8.70;;;;;;;-0.12;59.03;102111.75;105639;1257;65350;-68
2023/01/25 13:30:27;;;;;;;14.80;6.90;;;;;;;-0.13;59.18;102112.09;105248;1260;69371;-66
2023/01/25 13:33:05;;;;;;;16.70;7.10;;;;;;;-0.11;59.16;102109.50;105489;1260;63688;-67
2023/01/25 13:35:38;;;;;;;14.10;7.00;;;;;;;-0.09;59.35;102106.89;105277;1260;59626;-67
2023/01/25 13:38:16;;;;;;;11.70;5.80;;;;;;;0.03;59.23;102099.38;105144;1257;61286;-71
2023/01/25 13:40:45;;;;;;;12.90;4.80;;;;;;;0.17;59.12;102094.07;105300;1260;73702;-72
2023/01/25 16:12:12;;;;;;;21.20;10.40;;;;;;;0.17;59.29;102037.10;102882;1288;604290;-61
2023/01/25 16:14:44;;;;;;;16.20;7.30;;;;;;;0.46;58.48;102034.39;104553;1271;75519;-61
2023/01/25 16:17:19;;;;;;;17.40;7.20;;;;;;;0.42;58.49;102029.94;104812;1270;61233;-61
2023/01/25 16:19:47;;;;;;;18.90;7.90;;;;;;;0.41;58.51;102030.83;104794;1267;72211;-61
2023/01/25 16:22:16;;;;;;;16.30;8.10;;;;;;;0.37;58.53;102026.56;104709;1266;71301;-61
2023/01/25 16:24:45;;;;;;;17.10;8.20;;;;;;;0.31;58.69;102028.15;104719;1269;72543;-61
2023/01/25 16:27:15;;;;;;;16.40;7.60;;;;;;;0.29;58.72;102027.50;104677;1265;60286;-61
2023/01/25 16:29:44;;;;;;;17.60;8.70;;;;;;;0.27;58.75;102030.46;104782;1269;60286;-61
2023/01/25 16:32:12;;;;;;;20.00;8.20;;;;;;;0.23;58.92;102022.90;104668;1266;71997;-61
2023/01/25 16:34:40;;;;;;;20.80;8.30;;;;;;;0.14;58.97;102023.85;105074;1266;71252;-63
2023/01/25 16:37:15;;;;;;;17.70;7.10;;;;;;;0.07;59.19;102023.06;104953;1265;74296;-60
2023/01/25 16:39:44;;;;;;;23.30;8.90;;;;;;;0.04;59.28;102023.44;104997;1266;59659;-60
2023/01/25 16:42:12;;;;;;;18.10;7.00;;;;;;;0.01;59.16;102021.76;105027;1263;61486;-61
2023/01/25 16:44:41;;;;;;;14.50;6.80;;;;;;;-0.12;59.44;102018.25;105053;1264;73999;-61
2023/01/25 16:47:12;;;;;;;19.00;8.60;;;;;;;-0.21;59.63;102019.01;104882;1262;71249;-61
2023/01/25 16:49:40;;;;;;;17.50;8.20;;;;;;;-0.29;59.84;102019.08;104975;1262;72412;-59
2023/01/25 16:52:10;;;;;;;19.80;8.30;;;;;;;-0.31;59.94;102017.20;104724;1261;61397;-61
2023/01/25 16:54:38;;;;;;;15.70;7.60;;;;;;;-0.31;60.00;102019.63;105048;1263;61070;-61
2023/01/25 16:57:08;;;;;;;17.40;6.90;;;;;;;-0.31;60.04;102018.59;104899;1263;74056;-61
2023/01/25 16:59:47;;;;;;;17.60;7.80;;;;;;;-0.33;60.09;102015.33;104934;1265;70279;-61
2023/01/25 17:02:15;;;;;;;16.70;8.10;;;;;;;-0.37;60.05;102013.80;104882;1266;73321;-61
2023/01/25 17:04:44;;;;;;;17.00;8.00;;;;;;;-0.42;60.23;102020.92;104932;1264;60287;-61
2023/01/25 17:07:12;;;;;;;17.00;7.80;;;;;;;-0.41;60.40;102017.64;104815;1262;61457;-61
2023/01/25 17:09:40;;;;;;;16.80;6.70;;;;;;;-0.38;60.30;102018.64;105055;1265;74043;-61
2023/01/25 17:12:11;;;;;;;18.90;5.80;;;;;;;-0.29;60.17;102021.85;105227;1265;71242;-60
2023/01/25 17:14:39;;;;;;;14.30;5.60;;;;;;;-0.18;60.14;102017.27;104980;1262;73620;-60
2023/01/25 17:17:08;;;;;;;12.30;6.00;;;;;;;-0.04;60.15;102017.31;104938;1263;62405;-61
2023/01/25 17:19:37;;;;;;;16.00;6.30;;;;;;;0.07;59.91;102017.37;104962;1262;61347;-60
2023/01/25 17:22:06;;;;;;;19.70;7.90;;;;;;;0.15;59.82;102016.43;105151;1262;74028;-60
2023/01/25 17:24:35;;;;;;;17.50;7.50;;;;;;;0.18;59.71;102019.50;104925;1263;71304;-61
2023/01/25 17:27:04;;;;;;;16.70;8.20;;;;;;;0.19;59.61;102018.63;104924;1262;73468;-61